createdAt,value
2017-11-13T00:00:22.563Z,8.43
2017-11-13T00:02:50.277Z,10.05
2017-11-13T00:05:18.075Z,10.15
2017-11-13T00:07:45.771Z,9.73
2017-11-13T00:10:14.248Z,11.35
2017-11-13T00:12:42.098Z,13.18
2017-11-13T00:15:09.953Z,8.13
2017-11-13T00:17:37.827Z,13.52
2017-11-13T00:20:06.406Z,8.00
2017-11-13T00:22:34.273Z,9.45
2017-11-13T00:25:02.145Z,11.35
2017-11-13T00:27:30.010Z,9.88
2017-11-13T00:29:57.876Z,9.00
2017-11-13T00:32:25.741Z,10.95
2017-11-13T00:34:53.448Z,13.02
2017-11-13T00:37:21.924Z,14.07
2017-11-13T00:39:50.471Z,15.15
2017-11-13T00:42:18.339Z,16.58
2017-11-13T00:44:46.046Z,15.48
2017-11-13T00:47:14.523Z,13.95
2017-11-13T00:49:42.992Z,13.80
2017-11-13T00:52:10.836Z,14.07
2017-11-13T00:54:38.699Z,13.62
2017-11-13T00:57:06.404Z,17.05
2017-11-13T00:59:34.881Z,11.32
2017-11-13T01:02:03.538Z,12.90
2017-11-13T01:04:31.399Z,15.13
2017-11-13T01:06:59.265Z,13.90
2017-11-13T01:09:27.130Z,12.68
2017-11-13T01:11:54.998Z,12.68
2017-11-13T01:14:22.865Z,13.32
2017-11-13T01:16:50.733Z,16.02
2017-11-13T01:19:18.600Z,13.07
2017-11-13T01:21:46.468Z,11.40
2017-11-13T01:24:14.334Z,11.63
2017-11-13T01:26:42.203Z,13.20
2017-11-13T01:29:10.070Z,10.73
2017-11-13T01:31:37.937Z,11.68
2017-11-13T01:34:05.804Z,11.68
2017-11-13T01:36:33.672Z,13.00
2017-11-13T01:39:01.404Z,17.00
2017-11-13T01:41:29.203Z,18.37
2017-11-13T01:43:57.068Z,14.73
2017-11-13T01:46:24.936Z,14.52
2017-11-13T01:48:52.802Z,17.55
2017-11-13T01:51:20.671Z,14.35
2017-11-13T01:53:48.550Z,13.10
2017-11-13T01:56:17.224Z,12.18
2017-11-13T01:58:45.093Z,10.68
2017-11-13T02:01:12.961Z,11.90
2017-11-13T02:03:40.826Z,11.63
2017-11-13T02:06:08.796Z,12.68
2017-11-13T02:08:36.632Z,13.30
2017-11-13T02:11:04.391Z,11.73
2017-11-13T02:13:32.153Z,12.07
2017-11-13T02:16:00.070Z,16.33
2017-11-13T02:18:28.747Z,16.52
2017-11-13T02:20:56.614Z,11.57
2017-11-13T02:23:24.481Z,12.55
2017-11-13T02:25:52.452Z,10.85
2017-11-13T02:28:20.322Z,10.50
2017-11-13T02:30:48.186Z,13.98
2017-11-13T02:33:16.052Z,12.13
2017-11-13T02:35:43.924Z,11.88
2017-11-13T02:38:11.787Z,14.02
2017-11-13T02:40:39.655Z,13.60
2017-11-13T02:43:07.523Z,15.43
2017-11-13T02:45:35.492Z,15.57
2017-11-13T02:48:03.358Z,14.95
2017-11-13T02:50:31.127Z,15.43
2017-11-13T02:52:58.936Z,18.15
2017-11-13T02:55:27.519Z,12.20
2017-11-13T02:57:56.263Z,13.80
2017-11-13T03:00:24.140Z,13.07
2017-11-13T03:02:51.996Z,13.18
2017-11-13T03:05:19.868Z,21.08
2017-11-13T03:07:47.732Z,13.82
2017-11-13T03:10:15.598Z,13.38
2017-11-13T03:12:43.470Z,13.20
2017-11-13T03:15:11.541Z,13.45
2017-11-13T03:17:40.123Z,12.10
2017-11-13T03:20:07.990Z,13.70
2017-11-13T03:22:35.857Z,12.85
2017-11-13T03:25:03.631Z,13.77
2017-11-13T03:27:31.489Z,13.85
2017-11-13T03:29:59.356Z,16.15
2017-11-13T03:32:27.225Z,14.07
2017-11-13T03:34:55.024Z,15.00
2017-11-13T03:37:23.676Z,14.45
2017-11-13T03:39:51.471Z,15.73
2017-11-13T03:42:20.127Z,16.00
2017-11-13T03:44:47.993Z,13.43
2017-11-13T03:47:15.713Z,15.90
2017-11-13T03:49:43.432Z,17.30
2017-11-13T03:52:11.153Z,18.60
2017-11-13T03:54:38.862Z,16.00
2017-11-13T03:57:06.575Z,17.35
2017-11-13T03:59:34.379Z,16.67
2017-11-13T04:02:02.245Z,14.57
2017-11-13T04:04:30.141Z,14.60
2017-11-13T04:06:58.700Z,13.70
2017-11-13T04:09:26.568Z,14.85
2017-11-13T04:11:54.434Z,12.85
2017-11-13T04:14:22.304Z,15.20
2017-11-13T04:16:50.098Z,16.92
2017-11-13T04:19:18.632Z,16.37
2017-11-13T04:21:46.414Z,16.25
2017-11-13T04:24:14.281Z,13.73
2017-11-13T04:26:42.151Z,15.15
2017-11-13T04:29:10.016Z,14.77
2017-11-13T04:31:37.882Z,16.55
2017-11-13T04:34:05.648Z,18.85
2017-11-13T04:36:33.514Z,20.25
2017-11-13T04:39:01.382Z,16.35
2017-11-13T04:41:29.659Z,15.55
2017-11-13T04:43:57.373Z,19.58
2017-11-13T04:46:25.085Z,13.25
2017-11-13T04:48:52.852Z,15.00
2017-11-13T04:51:20.722Z,16.08
2017-11-13T04:53:48.586Z,16.45
2017-11-13T04:56:16.453Z,16.20
2017-11-13T04:58:44.321Z,17.02
2017-11-13T05:01:12.118Z,21.25
2017-11-13T05:03:40.670Z,21.33
2017-11-13T05:06:08.537Z,14.98
2017-11-13T05:08:36.283Z,19.15
2017-11-13T05:11:04.003Z,15.30
2017-11-13T05:13:32.560Z,20.52
2017-11-13T05:16:00.704Z,18.98
2017-11-13T05:18:30.102Z,14.45
2017-11-13T05:20:59.979Z,17.48
2017-11-13T05:23:28.480Z,20.12
2017-11-13T05:25:56.246Z,15.70
2017-11-13T05:28:23.972Z,14.75
2017-11-13T05:30:51.777Z,19.98
2017-11-13T05:33:19.547Z,14.75
2017-11-13T05:35:47.450Z,16.23
2017-11-13T05:38:15.319Z,19.02
2017-11-13T05:40:43.051Z,20.50
2017-11-13T05:43:10.840Z,25.00
2017-11-13T05:45:38.714Z,16.77
2017-11-13T05:48:06.582Z,17.55
2017-11-13T05:50:34.347Z,20.67
2017-11-13T05:53:02.216Z,15.82
2017-11-13T05:55:30.082Z,22.27
2017-11-13T05:57:57.948Z,20.27
2017-11-13T06:00:25.817Z,21.30
2017-11-13T06:02:53.683Z,19.52
2017-11-13T06:05:21.552Z,18.70
2017-11-13T06:07:49.284Z,19.83
2017-11-13T06:10:17.182Z,20.65
2017-11-13T06:12:44.908Z,20.48
2017-11-13T06:15:12.713Z,25.23
2017-11-13T06:17:40.440Z,15.15
2017-11-13T06:20:08.179Z,18.30
2017-11-13T06:22:36.689Z,17.85
2017-11-13T06:25:04.489Z,18.70
2017-11-13T06:27:32.368Z,20.27
2017-11-13T06:30:00.108Z,21.80
2017-11-13T06:32:27.990Z,18.45
2017-11-13T06:34:55.723Z,21.55
2017-11-13T06:37:23.456Z,23.40
2017-11-13T06:39:51.951Z,19.40
2017-11-13T06:42:19.680Z,19.35
2017-11-13T06:44:47.439Z,20.88
2017-11-13T06:47:15.298Z,18.55
2017-11-13T06:49:43.164Z,19.27
2017-11-13T06:52:10.888Z,18.37
2017-11-13T06:54:38.636Z,22.25
2017-11-13T06:57:07.136Z,18.95
2017-11-13T06:59:35.042Z,20.77
2017-11-13T07:02:02.780Z,17.35
2017-11-13T07:04:30.510Z,18.05
2017-11-13T07:06:59.022Z,17.58
2017-11-13T07:09:26.769Z,19.58
2017-11-13T07:11:54.516Z,18.80
2017-11-13T07:14:23.017Z,19.33
2017-11-13T07:16:50.741Z,20.12
2017-11-13T07:19:18.594Z,22.85
2017-11-13T07:21:46.466Z,19.85
2017-11-13T07:24:14.330Z,18.87
2017-11-13T07:26:42.199Z,22.73
2017-11-13T07:29:10.065Z,19.42
2017-11-13T07:31:37.936Z,20.02
2017-11-13T07:34:05.806Z,24.10
2017-11-13T07:36:33.669Z,24.27
2017-11-13T07:39:01.536Z,27.48
2017-11-13T07:41:30.048Z,20.85
2017-11-13T07:43:58.551Z,20.42
2017-11-13T07:46:26.263Z,20.05
2017-11-13T07:48:53.972Z,24.02
2017-11-13T07:51:22.448Z,25.92
2017-11-13T07:53:50.923Z,23.83
2017-11-13T07:56:19.412Z,18.08
2017-11-13T07:58:47.174Z,21.25
2017-11-13T08:01:14.893Z,22.15
2017-11-13T08:03:42.612Z,22.75
2017-11-13T08:06:10.429Z,19.58
2017-11-13T08:08:38.296Z,23.77
2017-11-13T08:11:06.165Z,21.02
2017-11-13T08:13:34.030Z,22.75
2017-11-13T08:16:01.903Z,19.08
2017-11-13T08:18:29.621Z,18.85
2017-11-13T08:20:57.427Z,16.27
2017-11-13T08:23:25.313Z,24.15
2017-11-13T08:25:53.165Z,16.12
2017-11-13T08:28:20.917Z,19.42
2017-11-13T08:30:48.712Z,17.73
2017-11-13T08:33:16.515Z,17.75
2017-11-13T08:35:44.294Z,16.30
2017-11-13T08:38:12.048Z,17.25
2017-11-13T08:40:39.789Z,9.43
2017-11-13T08:43:08.298Z,13.88
2017-11-13T08:45:36.044Z,11.85
2017-11-13T08:48:04.548Z,11.82
2017-11-13T08:50:32.282Z,12.35
2017-11-13T08:53:00.792Z,16.80
2017-11-13T08:55:28.532Z,11.55
2017-11-13T08:57:57.023Z,14.43
2017-11-13T09:00:25.525Z,11.88
2017-11-13T09:02:53.255Z,9.10
2017-11-13T09:05:21.752Z,9.65
2017-11-13T09:07:49.491Z,14.00
2017-11-13T09:10:17.308Z,11.77
2017-11-13T09:12:45.048Z,15.30
2017-11-13T09:15:12.791Z,10.68
2017-11-13T09:17:41.285Z,14.48
2017-11-13T09:20:09.816Z,11.52
2017-11-13T09:22:37.537Z,12.48
2017-11-13T09:25:06.019Z,9.80
2017-11-13T09:27:34.504Z,13.32
2017-11-13T09:30:02.225Z,10.05
2017-11-13T09:32:29.960Z,12.70
2017-11-13T09:34:57.675Z,10.82
2017-11-13T09:37:26.207Z,13.20
2017-11-13T09:39:53.955Z,12.18
2017-11-13T09:42:21.736Z,12.18
2017-11-13T09:44:49.459Z,10.18
2017-11-13T09:47:17.975Z,10.00
2017-11-13T09:49:45.743Z,9.40
2017-11-13T09:52:13.507Z,11.20
2017-11-13T09:54:41.273Z,9.95
2017-11-13T09:57:09.044Z,8.95
2017-11-13T09:59:36.795Z,14.48
2017-11-13T10:02:04.569Z,12.35
2017-11-13T10:04:32.303Z,13.65
2017-11-13T10:07:00.845Z,10.20
2017-11-13T10:09:28.584Z,12.05
2017-11-13T10:11:56.316Z,9.48
2017-11-13T10:14:24.898Z,10.65
2017-11-13T10:16:53.454Z,13.62
2017-11-13T10:19:21.296Z,10.70
2017-11-13T10:21:49.117Z,9.48
2017-11-13T10:24:16.888Z,12.48
2017-11-13T10:26:44.736Z,10.73
2017-11-13T10:29:13.254Z,6.00
2017-11-13T10:31:41.016Z,7.43
2017-11-13T10:34:08.776Z,10.82
2017-11-13T10:36:36.523Z,8.60
2017-11-13T10:39:04.354Z,5.45
2017-11-13T10:41:32.085Z,8.30
2017-11-13T10:43:59.863Z,11.02
2017-11-13T10:46:27.647Z,12.82
2017-11-13T10:48:56.167Z,8.38
2017-11-13T10:51:24.707Z,9.15
2017-11-13T10:53:52.535Z,12.30
2017-11-13T10:56:20.324Z,9.73
2017-11-13T10:58:48.139Z,8.43
2017-11-13T11:01:16.720Z,9.70
2017-11-13T11:03:45.304Z,7.37
2017-11-13T11:06:13.863Z,9.30
2017-11-13T11:08:41.623Z,11.65
2017-11-13T11:11:09.414Z,13.05
2017-11-13T11:13:53.841Z,8.43
2017-11-13T11:16:36.485Z,9.20
2017-11-13T11:19:23.699Z,8.20
2017-11-13T11:21:52.102Z,9.27
2017-11-13T11:24:19.865Z,6.90
2017-11-13T11:26:50.896Z,17.12
2017-11-13T11:29:25.108Z,8.43
2017-11-13T11:31:57.280Z,8.20
2017-11-13T11:34:40.659Z,10.90
2017-11-13T11:37:09.039Z,11.05
2017-11-13T11:39:36.801Z,8.82
2017-11-13T11:42:04.599Z,13.38
2017-11-13T11:44:50.146Z,12.73
2017-11-13T11:47:17.913Z,7.12
2017-11-13T11:49:45.675Z,7.12
2017-11-13T11:52:13.471Z,9.57
2017-11-13T11:54:42.123Z,11.88
2017-11-13T11:57:27.651Z,10.50
2017-11-13T11:59:55.451Z,11.05
2017-11-13T12:02:23.229Z,12.40
2017-11-13T12:04:50.954Z,7.65
2017-11-13T12:07:19.469Z,8.43
2017-11-13T12:09:47.233Z,7.32
2017-11-13T12:12:14.996Z,7.65
2017-11-13T12:14:42.747Z,6.93
2017-11-13T12:17:11.247Z,16.77
2017-11-13T12:19:39.010Z,10.52
2017-11-13T12:22:06.772Z,12.27
2017-11-13T12:24:34.514Z,15.40
2017-11-13T12:27:03.012Z,9.38
2017-11-13T12:29:30.732Z,7.90
2017-11-13T12:31:58.455Z,9.75
2017-11-13T12:34:26.169Z,10.95
2017-11-13T12:36:53.899Z,14.32
2017-11-13T12:39:21.639Z,12.55
2017-11-13T12:41:49.355Z,6.97
2017-11-13T12:44:17.075Z,19.75
2017-11-13T12:46:44.796Z,11.57
2017-11-13T12:49:12.515Z,7.28
2017-11-13T12:51:40.240Z,9.65
2017-11-13T12:54:08.760Z,8.52
2017-11-13T12:56:36.511Z,5.82
2017-11-13T12:59:04.266Z,7.47
2017-11-13T13:01:32.010Z,6.70
2017-11-13T13:04:00.532Z,8.95
2017-11-13T13:06:28.260Z,4.57
2017-11-13T13:08:56.797Z,11.63
2017-11-13T13:11:24.561Z,6.80
2017-11-13T13:13:52.307Z,6.40
2017-11-13T13:16:20.067Z,10.07
2017-11-13T13:18:47.807Z,7.50
2017-11-13T13:21:16.296Z,8.10
2017-11-13T13:23:44.791Z,8.35
2017-11-13T13:26:12.514Z,6.95
2017-11-13T13:28:41.057Z,5.47
2017-11-13T13:31:08.801Z,6.35
2017-11-13T13:33:36.531Z,7.22
2017-11-13T13:36:04.344Z,5.45
2017-11-13T13:38:32.090Z,9.77
2017-11-13T13:40:59.923Z,5.00
2017-11-13T13:43:27.651Z,7.93
2017-11-13T13:45:55.383Z,7.30
2017-11-13T13:48:23.135Z,10.20
2017-11-13T13:50:51.635Z,5.80
2017-11-13T13:53:19.472Z,8.52
2017-11-13T13:55:48.135Z,9.38
2017-11-13T13:58:15.923Z,9.98
2017-11-13T14:00:44.475Z,6.60
2017-11-13T14:03:12.263Z,5.32
2017-11-13T14:05:40.020Z,8.57
2017-11-13T14:08:07.821Z,7.30
2017-11-13T14:10:35.602Z,9.30
2017-11-13T14:13:03.395Z,4.82
2017-11-13T14:15:31.133Z,5.30
2017-11-13T14:17:58.878Z,13.52
2017-11-13T14:20:27.380Z,10.60
2017-11-13T14:22:55.191Z,6.43
2017-11-13T14:25:23.719Z,9.48
2017-11-13T14:27:51.448Z,10.15
2017-11-13T14:30:19.175Z,8.52
2017-11-13T14:32:47.198Z,7.95
2017-11-13T14:35:15.675Z,9.55
2017-11-13T14:37:43.395Z,11.12
2017-11-13T14:40:11.113Z,12.05
2017-11-13T14:42:39.639Z,9.10
2017-11-13T14:45:07.406Z,10.18
2017-11-13T14:47:35.133Z,13.40
2017-11-13T14:50:02.871Z,9.35
2017-11-13T14:52:30.603Z,11.10
2017-11-13T14:54:58.346Z,9.55
2017-11-13T14:57:26.072Z,7.93
2017-11-13T14:59:54.559Z,13.62
2017-11-13T15:02:23.049Z,8.00
2017-11-13T15:04:51.535Z,11.27
2017-11-13T15:07:20.040Z,16.27
2017-11-13T15:09:47.759Z,15.48
2017-11-13T15:12:15.471Z,11.77
2017-11-13T15:14:43.195Z,12.77
2017-11-13T15:17:11.679Z,10.55
2017-11-13T15:19:40.172Z,9.15
2017-11-13T15:22:08.883Z,8.55
2017-11-13T15:24:36.644Z,9.75
2017-11-13T15:27:04.403Z,10.23
2017-11-13T15:29:32.159Z,8.25
2017-11-13T15:31:59.879Z,9.55
2017-11-13T15:34:27.590Z,10.38
2017-11-13T15:36:55.307Z,5.75
2017-11-13T15:39:23.056Z,7.25
2017-11-13T15:41:50.768Z,8.55
2017-11-13T15:44:19.247Z,7.00
2017-11-13T15:46:47.740Z,6.68
2017-11-13T15:49:15.449Z,8.85
2017-11-13T15:51:43.152Z,5.75
2017-11-13T15:54:11.632Z,14.25
2017-11-13T15:56:40.119Z,5.78
2017-11-13T15:59:08.600Z,7.15
2017-11-13T16:01:37.092Z,8.25
2017-11-13T16:04:05.573Z,7.70
2017-11-13T16:06:34.046Z,15.85
2017-11-13T16:09:02.533Z,6.68
2017-11-13T16:11:31.062Z,6.65
2017-11-13T16:13:58.772Z,6.20
2017-11-13T16:16:27.257Z,12.25
2017-11-13T16:18:55.743Z,12.23
2017-11-13T16:21:24.227Z,13.27
2017-11-13T16:23:52.731Z,12.25
2017-11-13T16:26:20.467Z,14.02
2017-11-13T16:28:49.006Z,8.82
2017-11-13T16:31:16.776Z,7.05
2017-11-13T16:33:44.512Z,7.20
2017-11-13T16:36:12.235Z,7.12
2017-11-13T16:38:40.724Z,5.80
2017-11-13T16:41:09.217Z,11.12
2017-11-13T16:43:36.952Z,9.23
2017-11-13T16:46:04.696Z,8.73
2017-11-13T16:48:32.429Z,14.18
2017-11-13T16:51:00.151Z,10.82
2017-11-13T16:53:28.646Z,8.70
2017-11-13T16:55:57.167Z,11.32
2017-11-13T16:58:24.899Z,16.58
2017-11-13T17:00:52.634Z,12.73
2017-11-13T17:03:20.365Z,8.65
2017-11-13T17:05:48.112Z,12.00
2017-11-13T17:08:15.847Z,11.48
2017-11-13T17:10:44.348Z,10.38
2017-11-13T17:13:12.072Z,11.88
2017-11-13T17:15:39.807Z,10.77
2017-11-13T17:18:07.532Z,9.05
2017-11-13T17:20:36.017Z,8.75
2017-11-13T17:23:03.753Z,10.70
2017-11-13T17:25:31.496Z,18.67
2017-11-13T17:27:59.229Z,8.82
2017-11-13T17:30:26.964Z,13.10
2017-11-13T17:32:55.450Z,8.60
2017-11-13T17:35:23.972Z,14.43
2017-11-13T17:37:51.696Z,14.55
2017-11-13T17:40:19.447Z,13.95
2017-11-13T17:42:47.955Z,14.23
2017-11-13T17:45:15.749Z,14.50
2017-11-13T17:47:43.471Z,14.27
2017-11-13T17:50:11.968Z,18.15
2017-11-13T17:52:39.704Z,19.27
2017-11-13T17:55:08.219Z,14.30
2017-11-13T17:57:36.008Z,16.42
2017-11-13T18:00:03.784Z,13.80
2017-11-13T18:02:31.535Z,15.77
2017-11-13T18:04:59.255Z,14.00
2017-11-13T18:07:27.760Z,14.50
2017-11-13T18:09:55.492Z,16.70
2017-11-13T18:12:23.991Z,17.98
2017-11-13T18:14:52.549Z,15.15
2017-11-13T18:17:20.290Z,13.07
2017-11-13T18:19:48.024Z,22.87
2017-11-13T18:22:15.748Z,22.75
2017-11-13T18:24:44.250Z,14.75
2017-11-13T18:27:12.754Z,18.10
2017-11-13T18:29:40.493Z,10.27
2017-11-13T18:32:09.000Z,21.77
2017-11-13T18:34:36.722Z,20.05
2017-11-13T18:37:04.451Z,20.60
2017-11-13T18:39:32.186Z,14.48
2017-11-13T18:41:59.917Z,27.55
2017-11-13T18:44:28.431Z,21.08
2017-11-13T18:46:56.161Z,14.50
2017-11-13T18:49:23.898Z,20.30
2017-11-13T18:51:51.638Z,20.40
2017-11-13T18:54:19.368Z,18.77
2017-11-13T18:56:47.869Z,16.83
2017-11-13T18:59:15.595Z,21.62
2017-11-13T19:01:43.331Z,11.18
2017-11-13T19:04:11.060Z,13.50
2017-11-13T19:06:38.799Z,19.33
2017-11-13T19:09:07.307Z,13.50
2017-11-13T19:11:35.027Z,15.30
2017-11-13T19:14:02.764Z,12.27
2017-11-13T19:16:30.496Z,22.60
2017-11-13T19:18:58.227Z,14.75
2017-11-13T19:21:25.966Z,11.05
2017-11-13T19:23:53.711Z,9.35
2017-11-13T19:26:21.442Z,12.00
2017-11-13T19:28:49.935Z,14.38
2017-11-13T19:31:17.675Z,8.75
2017-11-13T19:33:46.208Z,7.97
2017-11-13T19:36:13.977Z,19.17
2017-11-13T19:38:41.716Z,12.95
2017-11-13T19:41:09.490Z,11.95
2017-11-13T19:43:37.264Z,15.18
2017-11-13T19:46:05.088Z,10.65
2017-11-13T19:48:33.604Z,13.05
2017-11-13T19:51:01.333Z,10.77
2017-11-13T19:53:29.847Z,9.85
2017-11-13T19:55:57.584Z,11.30
2017-11-13T19:58:26.092Z,8.00
2017-11-13T20:00:53.844Z,9.10
2017-11-13T20:03:21.597Z,9.63
2017-11-13T20:05:50.099Z,12.18
2017-11-13T20:08:17.815Z,12.37
2017-11-13T20:10:45.561Z,11.82
2017-11-13T20:13:13.291Z,18.95
2017-11-13T20:15:41.035Z,8.10
2017-11-13T20:18:09.546Z,12.35
2017-11-13T20:20:37.304Z,14.18
2017-11-13T20:23:05.049Z,18.23
2017-11-13T20:25:32.773Z,26.30
2017-11-13T20:28:00.500Z,29.42
2017-11-13T20:30:28.218Z,24.65
2017-11-13T20:32:55.943Z,25.37
2017-11-13T20:35:23.658Z,21.77
2017-11-13T20:37:52.147Z,29.58
2017-11-13T20:40:20.629Z,20.37
2017-11-13T20:42:49.114Z,20.35
2017-11-13T20:45:17.693Z,15.75
2017-11-13T20:47:46.177Z,22.62
2017-11-13T20:50:14.718Z,23.70
2017-11-13T20:52:42.442Z,13.07
2017-11-13T20:55:10.188Z,20.85
2017-11-13T20:57:38.666Z,25.73
2017-11-13T21:00:07.217Z,29.40
2017-11-13T21:02:35.007Z,24.77
2017-11-13T21:05:03.523Z,26.08
2017-11-13T21:07:31.251Z,23.30
2017-11-13T21:09:58.972Z,18.52
2017-11-13T21:12:26.695Z,21.02
2017-11-13T21:14:55.456Z,18.48
2017-11-13T21:17:23.216Z,17.25
2017-11-13T21:19:52.443Z,19.70
2017-11-13T21:22:22.945Z,20.12
2017-11-13T21:24:50.695Z,17.35
2017-11-13T21:27:18.429Z,18.00
2017-11-13T21:29:46.169Z,13.85
2017-11-13T21:32:14.684Z,19.58
2017-11-13T21:34:42.419Z,17.75
2017-11-13T21:37:10.142Z,14.55
2017-11-13T21:39:37.888Z,13.98
2017-11-13T21:42:05.622Z,21.52
2017-11-13T21:44:33.352Z,15.68
2017-11-13T21:47:01.103Z,20.27
2017-11-13T21:49:28.838Z,12.52
2017-11-13T21:51:56.563Z,18.50
2017-11-13T21:54:25.068Z,15.93
2017-11-13T21:56:52.792Z,25.45
2017-11-13T21:59:21.325Z,22.58
2017-11-13T22:01:49.085Z,24.87
2017-11-13T22:04:16.807Z,34.13
2017-11-13T22:06:45.091Z,24.17
2017-11-13T22:09:13.707Z,20.70
2017-11-13T22:11:43.254Z,21.77
2017-11-13T22:14:11.095Z,18.17
2017-11-13T22:16:38.883Z,20.65
2017-11-13T22:19:08.305Z,17.52
2017-11-13T22:21:37.900Z,19.73
2017-11-13T22:24:07.477Z,24.33
2017-11-13T22:26:37.080Z,22.40
2017-11-13T22:29:25.702Z,31.00
2017-11-13T22:31:56.068Z,22.40
2017-11-13T22:34:23.794Z,23.50
2017-11-13T22:36:52.292Z,18.92
2017-11-13T22:39:20.055Z,23.08
2017-11-13T22:41:47.786Z,25.30
2017-11-13T22:44:15.573Z,22.98
2017-11-13T22:46:44.059Z,22.83
2017-11-13T22:49:11.805Z,27.83
2017-11-13T22:51:40.310Z,17.20
2017-11-13T22:54:08.051Z,14.63
2017-11-13T22:56:35.795Z,27.73
2017-11-13T22:59:03.528Z,18.92
2017-11-13T23:01:31.255Z,21.33
2017-11-13T23:03:59.734Z,20.25
2017-11-13T23:06:28.213Z,24.00
2017-11-13T23:08:56.695Z,17.85
2017-11-13T23:11:25.203Z,27.42
2017-11-13T23:13:52.938Z,19.42
2017-11-13T23:16:21.424Z,17.40
2017-11-13T23:18:49.900Z,18.92
2017-11-13T23:21:18.399Z,17.98
2017-11-13T23:23:47.013Z,19.15
2017-11-13T23:26:14.766Z,21.23
2017-11-13T23:28:42.486Z,23.92
2017-11-13T23:31:10.195Z,17.40
2017-11-13T23:33:37.903Z,17.95
2017-11-13T23:36:05.616Z,20.17
2017-11-13T23:38:33.335Z,16.45
2017-11-13T23:41:01.045Z,11.32
2017-11-13T23:43:28.802Z,16.27
2017-11-13T23:45:56.524Z,16.90
2017-11-13T23:48:24.295Z,18.00
2017-11-13T23:50:52.019Z,22.92
2017-11-13T23:53:19.743Z,19.62
2017-11-13T23:55:48.286Z,13.18
2017-11-13T23:58:16.019Z,24.00
